Picabo, Idaho
Current Conditions -  °F | °C
As of 11:15 PM on Friday 28 Nov 2014 (Local Time) from KSUN Reporting Station
Broken Clouds Broken Clouds  
Wind Chill: 46°   Ceiling: 7500
Heat Index: 46°   Visibility: 10mi
Dew Point: 28°   Wind: 0mph
Humidity: 50%   Direction: NA
Pressure: 29.68"   Gusts: NA
Location:  43.31°N, 114.07°W
Report Text: KSUN 290615Z AUTO 00000KT 10SM BKN075 08/M02 A2968 RMK AO2
Loading
Personal Weather Stations






























Interactive Weather Map New forecast layout! Learn more

10-Day Weather Forecast

Advertisements
Track Severe Weather on mobile